sensor_id;sensor_type;location;lat;lon;timestamp;P1;durP1;ratioP1;P2;durP2;ratioP2
70683;SDS011;58263;48.146;11.440;2022-11-21T00:00:01;0.23;;;0.23;;
70683;SDS011;58263;48.146;11.440;2022-11-21T00:02:27;0.75;;;0.75;;
70683;SDS011;58263;48.146;11.440;2022-11-21T00:04:53;0.77;;;0.77;;
70683;SDS011;58263;48.146;11.440;2022-11-21T00:07:18;0.50;;;0.50;;
70683;SDS011;58263;48.146;11.440;2022-11-21T00:09:43;0.40;;;0.40;;
70683;SDS011;58263;48.146;11.440;2022-11-21T00:12:09;0.40;;;0.40;;
70683;SDS011;58263;48.146;11.440;2022-11-21T00:14:34;0.60;;;0.57;;
70683;SDS011;58263;48.146;11.440;2022-11-21T00:16:59;0.60;;;0.60;;
70683;SDS011;58263;48.146;11.440;2022-11-21T00:19:24;1.10;;;0.47;;
70683;SDS011;58263;48.146;11.440;2022-11-21T00:21:50;0.57;;;0.57;;
70683;SDS011;58263;48.146;11.440;2022-11-21T00:24:15;1.40;;;0.73;;
70683;SDS011;58263;48.146;11.440;2022-11-21T00:26:40;0.53;;;0.53;;
70683;SDS011;58263;48.146;11.440;2022-11-21T00:29:06;0.50;;;0.50;;
70683;SDS011;58263;48.146;11.440;2022-11-21T00:31:31;0.63;;;0.40;;
70683;SDS011;58263;48.146;11.440;2022-11-21T00:33:56;0.40;;;0.40;;
70683;SDS011;58263;48.146;11.440;2022-11-21T00:36:22;0.30;;;0.30;;
70683;SDS011;58263;48.146;11.440;2022-11-21T00:38:47;0.27;;;0.27;;
70683;SDS011;58263;48.146;11.440;2022-11-21T00:41:12;0.60;;;0.60;;
70683;SDS011;58263;48.146;11.440;2022-11-21T00:43:37;0.30;;;0.30;;
70683;SDS011;58263;48.146;11.440;2022-11-21T00:46:03;0.53;;;0.53;;
70683;SDS011;58263;48.146;11.440;2022-11-21T00:48:29;0.23;;;0.23;;
70683;SDS011;58263;48.146;11.440;2022-11-21T00:50:55;0.38;;;0.38;;
70683;SDS011;58263;48.146;11.440;2022-11-21T00:53:20;0.35;;;0.35;;
70683;SDS011;58263;48.146;11.440;2022-11-21T00:55:45;0.57;;;0.57;;
70683;SDS011;58263;48.146;11.440;2022-11-21T00:58:11;0.40;;;0.40;;
70683;SDS011;58263;48.146;11.440;2022-11-21T01:00:36;1.43;;;0.53;;
70683;SDS011;58263;48.146;11.440;2022-11-21T01:03:01;1.00;;;0.77;;
70683;SDS011;58263;48.146;11.440;2022-11-21T01:05:27;0.80;;;0.80;;
70683;SDS011;58263;48.146;11.440;2022-11-21T01:07:52;0.40;;;0.40;;
70683;SDS011;58263;48.146;11.440;2022-11-21T01:10:17;0.47;;;0.47;;
70683;SDS011;58263;48.146;11.440;2022-11-21T01:12:42;1.00;;;0.82;;
70683;SDS011;58263;48.146;11.440;2022-11-21T01:15:08;1.67;;;0.57;;
70683;SDS011;58263;48.146;11.440;2022-11-21T01:17:34;0.60;;;0.60;;
70683;SDS011;58263;48.146;11.440;2022-11-21T01:19:59;0.63;;;0.53;;
70683;SDS011;58263;48.146;11.440;2022-11-21T01:22:24;1.60;;;1.07;;
70683;SDS011;58263;48.146;11.440;2022-11-21T01:24:50;0.70;;;0.70;;
70683;SDS011;58263;48.146;11.440;2022-11-21T01:27:15;0.60;;;0.60;;
70683;SDS011;58263;48.146;11.440;2022-11-21T01:29:40;0.63;;;0.40;;
70683;SDS011;58263;48.146;11.440;2022-11-21T01:32:05;0.60;;;0.60;;
70683;SDS011;58263;48.146;11.440;2022-11-21T01:34:31;0.60;;;0.60;;
70683;SDS011;58263;48.146;11.440;2022-11-21T01:36:57;0.80;;;0.80;;
70683;SDS011;58263;48.146;11.440;2022-11-21T01:39:22;0.60;;;0.47;;
70683;SDS011;58263;48.146;11.440;2022-11-21T01:41:47;3.03;;;0.80;;
70683;SDS011;58263;48.146;11.440;2022-11-21T01:46:46;0.55;;;0.55;;
70683;SDS011;58263;48.146;11.440;2022-11-21T01:51:44;1.90;;;0.70;;
70683;SDS011;58263;48.146;11.440;2022-11-21T01:59:32;0.60;;;0.60;;
70683;SDS011;58263;48.146;11.440;2022-11-21T02:02:09;0.70;;;0.70;;
70683;SDS011;58263;48.146;11.440;2022-11-21T02:04:36;1.85;;;0.77;;
70683;SDS011;58263;48.146;11.440;2022-11-21T02:07:04;0.75;;;0.60;;
70683;SDS011;58263;48.146;11.440;2022-11-21T02:09:31;0.70;;;0.70;;
70683;SDS011;58263;48.146;11.440;2022-11-21T02:12:07;0.50;;;0.50;;
70683;SDS011;58263;48.146;11.440;2022-11-21T02:14:37;0.63;;;0.63;;
70683;SDS011;58263;48.146;11.440;2022-11-21T02:17:05;0.77;;;0.77;;
70683;SDS011;58263;48.146;11.440;2022-11-21T02:20:07;0.47;;;0.47;;
70683;SDS011;58263;48.146;11.440;2022-11-21T02:25:05;0.47;;;0.47;;
70683;SDS011;58263;48.146;11.440;2022-11-21T02:27:44;0.75;;;0.75;;
70683;SDS011;58263;48.146;11.440;2022-11-21T02:30:12;1.67;;;0.73;;
70683;SDS011;58263;48.146;11.440;2022-11-21T02:32:38;0.43;;;0.43;;
70683;SDS011;58263;48.146;11.440;2022-11-21T02:35:06;1.15;;;0.88;;
70683;SDS011;58263;48.146;11.440;2022-11-21T02:37:34;1.13;;;0.85;;
70683;SDS011;58263;48.146;11.440;2022-11-21T02:40:02;0.90;;;0.70;;
70683;SDS011;58263;48.146;11.440;2022-11-21T02:42:32;1.58;;;0.65;;
70683;SDS011;58263;48.146;11.440;2022-11-21T02:47:52;1.05;;;1.00;;
70683;SDS011;58263;48.146;11.440;2022-11-21T02:50:19;1.02;;;0.80;;
70683;SDS011;58263;48.146;11.440;2022-11-21T02:52:49;2.05;;;0.85;;
70683;SDS011;58263;48.146;11.440;2022-11-21T02:55:15;2.35;;;1.00;;
70683;SDS011;58263;48.146;11.440;2022-11-21T02:57:40;0.50;;;0.50;;
70683;SDS011;58263;48.146;11.440;2022-11-21T03:00:06;1.50;;;0.77;;
70683;SDS011;58263;48.146;11.440;2022-11-21T03:02:33;1.77;;;0.68;;
70683;SDS011;58263;48.146;11.440;2022-11-21T03:04:59;1.60;;;0.73;;
70683;SDS011;58263;48.146;11.440;2022-11-21T03:07:25;0.75;;;0.60;;
70683;SDS011;58263;48.146;11.440;2022-11-21T03:09:50;1.10;;;0.70;;
70683;SDS011;58263;48.146;11.440;2022-11-21T03:12:15;0.80;;;0.70;;
70683;SDS011;58263;48.146;11.440;2022-11-21T03:14:41;1.93;;;1.00;;
70683;SDS011;58263;48.146;11.440;2022-11-21T03:17:06;0.67;;;0.67;;
70683;SDS011;58263;48.146;11.440;2022-11-21T03:19:31;1.37;;;0.67;;
70683;SDS011;58263;48.146;11.440;2022-11-21T03:21:56;4.07;;;0.87;;
70683;SDS011;58263;48.146;11.440;2022-11-21T03:24:22;1.07;;;0.70;;
70683;SDS011;58263;48.146;11.440;2022-11-21T03:26:47;0.73;;;0.73;;
70683;SDS011;58263;48.146;11.440;2022-11-21T03:29:12;1.95;;;0.50;;
70683;SDS011;58263;48.146;11.440;2022-11-21T03:31:38;2.53;;;0.73;;
70683;SDS011;58263;48.146;11.440;2022-11-21T03:34:03;2.13;;;0.68;;
70683;SDS011;58263;48.146;11.440;2022-11-21T03:36:28;1.53;;;0.50;;
70683;SDS011;58263;48.146;11.440;2022-11-21T03:38:54;0.70;;;0.43;;
70683;SDS011;58263;48.146;11.440;2022-11-21T03:41:21;0.38;;;0.38;;
70683;SDS011;58263;48.146;11.440;2022-11-21T03:43:59;0.98;;;0.60;;
70683;SDS011;58263;48.146;11.440;2022-11-21T03:46:27;1.80;;;0.73;;
70683;SDS011;58263;48.146;11.440;2022-11-21T03:48:53;0.40;;;0.40;;
70683;SDS011;58263;48.146;11.440;2022-11-21T03:51:19;0.73;;;0.60;;
70683;SDS011;58263;48.146;11.440;2022-11-21T03:53:44;2.00;;;1.05;;
70683;SDS011;58263;48.146;11.440;2022-11-21T03:56:10;0.50;;;0.50;;
70683;SDS011;58263;48.146;11.440;2022-11-21T03:58:36;2.92;;;0.55;;
70683;SDS011;58263;48.146;11.440;2022-11-21T04:01:01;2.03;;;0.57;;
70683;SDS011;58263;48.146;11.440;2022-11-21T04:03:26;0.70;;;0.60;;
70683;SDS011;58263;48.146;11.440;2022-11-21T04:05:52;0.53;;;0.43;;
70683;SDS011;58263;48.146;11.440;2022-11-21T04:08:17;2.10;;;0.90;;
70683;SDS011;58263;48.146;11.440;2022-11-21T04:10:49;0.80;;;0.50;;
70683;SDS011;58263;48.146;11.440;2022-11-21T04:13:15;3.70;;;0.90;;
70683;SDS011;58263;48.146;11.440;2022-11-21T04:15:41;1.48;;;0.60;;
70683;SDS011;58263;48.146;11.440;2022-11-21T04:18:07;0.95;;;0.70;;
70683;SDS011;58263;48.146;11.440;2022-11-21T04:20:33;2.47;;;0.93;;
70683;SDS011;58263;48.146;11.440;2022-11-21T04:22:58;1.35;;;0.80;;
70683;SDS011;58263;48.146;11.440;2022-11-21T04:25:24;2.67;;;0.90;;
70683;SDS011;58263;48.146;11.440;2022-11-21T04:27:49;0.80;;;0.80;;
70683;SDS011;58263;48.146;11.440;2022-11-21T04:30:14;0.57;;;0.47;;
70683;SDS011;58263;48.146;11.440;2022-11-21T04:32:40;2.45;;;0.90;;
70683;SDS011;58263;48.146;11.440;2022-11-21T04:35:06;2.73;;;0.50;;
70683;SDS011;58263;48.146;11.440;2022-11-21T04:37:32;1.60;;;0.82;;
70683;SDS011;58263;48.146;11.440;2022-11-21T04:39:57;3.67;;;0.82;;
70683;SDS011;58263;48.146;11.440;2022-11-21T04:42:23;3.50;;;0.57;;
70683;SDS011;58263;48.146;11.440;2022-11-21T04:44:48;2.15;;;0.93;;
70683;SDS011;58263;48.146;11.440;2022-11-21T04:47:13;0.80;;;0.77;;
70683;SDS011;58263;48.146;11.440;2022-11-21T04:49:39;3.47;;;1.00;;
70683;SDS011;58263;48.146;11.440;2022-11-21T04:52:04;4.67;;;1.27;;
70683;SDS011;58263;48.146;11.440;2022-11-21T04:54:29;2.73;;;0.90;;
70683;SDS011;58263;48.146;11.440;2022-11-21T04:56:55;1.93;;;0.80;;
70683;SDS011;58263;48.146;11.440;2022-11-21T04:59:20;2.30;;;0.60;;
70683;SDS011;58263;48.146;11.440;2022-11-21T05:01:45;2.07;;;1.20;;
70683;SDS011;58263;48.146;11.440;2022-11-21T05:04:10;3.27;;;1.00;;
70683;SDS011;58263;48.146;11.440;2022-11-21T05:06:36;0.67;;;0.67;;
70683;SDS011;58263;48.146;11.440;2022-11-21T05:09:01;0.30;;;0.30;;
70683;SDS011;58263;48.146;11.440;2022-11-21T05:11:26;1.23;;;0.80;;
70683;SDS011;58263;48.146;11.440;2022-11-21T05:14:10;1.33;;;0.57;;
70683;SDS011;58263;48.146;11.440;2022-11-21T05:16:36;1.50;;;0.88;;
70683;SDS011;58263;48.146;11.440;2022-11-21T05:19:01;2.27;;;0.57;;
70683;SDS011;58263;48.146;11.440;2022-11-21T05:21:26;0.50;;;0.50;;
70683;SDS011;58263;48.146;11.440;2022-11-21T05:23:51;1.33;;;0.40;;
70683;SDS011;58263;48.146;11.440;2022-11-21T05:26:17;1.13;;;0.47;;
70683;SDS011;58263;48.146;11.440;2022-11-21T05:28:42;0.63;;;0.40;;
70683;SDS011;58263;48.146;11.440;2022-11-21T05:31:08;0.40;;;0.28;;
70683;SDS011;58263;48.146;11.440;2022-11-21T05:33:33;0.50;;;0.50;;
70683;SDS011;58263;48.146;11.440;2022-11-21T05:35:58;1.33;;;0.60;;
70683;SDS011;58263;48.146;11.440;2022-11-21T05:38:23;3.00;;;0.60;;
70683;SDS011;58263;48.146;11.440;2022-11-21T05:40:50;0.50;;;0.50;;
70683;SDS011;58263;48.146;11.440;2022-11-21T05:43:16;1.48;;;0.60;;
70683;SDS011;58263;48.146;11.440;2022-11-21T05:46:00;0.60;;;0.60;;
70683;SDS011;58263;48.146;11.440;2022-11-21T05:48:26;1.13;;;0.57;;
70683;SDS011;58263;48.146;11.440;2022-11-21T05:50:51;3.43;;;0.70;;
70683;SDS011;58263;48.146;11.440;2022-11-21T05:53:16;3.08;;;0.80;;
70683;SDS011;58263;48.146;11.440;2022-11-21T05:55:42;0.30;;;0.30;;
70683;SDS011;58263;48.146;11.440;2022-11-21T05:58:07;1.92;;;1.20;;
70683;SDS011;58263;48.146;11.440;2022-11-21T06:00:34;1.55;;;0.73;;
70683;SDS011;58263;48.146;11.440;2022-11-21T06:03:00;1.13;;;0.50;;
70683;SDS011;58263;48.146;11.440;2022-11-21T06:05:44;1.92;;;0.77;;
70683;SDS011;58263;48.146;11.440;2022-11-21T06:08:09;2.80;;;1.23;;
70683;SDS011;58263;48.146;11.440;2022-11-21T06:10:35;0.90;;;0.63;;
70683;SDS011;58263;48.146;11.440;2022-11-21T06:13:00;1.20;;;1.10;;
70683;SDS011;58263;48.146;11.440;2022-11-21T06:15:26;1.98;;;1.08;;
70683;SDS011;58263;48.146;11.440;2022-11-21T06:17:51;1.83;;;0.75;;
70683;SDS011;58263;48.146;11.440;2022-11-21T06:20:17;0.77;;;0.77;;
70683;SDS011;58263;48.146;11.440;2022-11-21T06:22:42;1.13;;;0.90;;
70683;SDS011;58263;48.146;11.440;2022-11-21T06:25:07;0.83;;;0.83;;
70683;SDS011;58263;48.146;11.440;2022-11-21T06:27:33;2.22;;;0.90;;
70683;SDS011;58263;48.146;11.440;2022-11-21T06:29:58;0.50;;;0.50;;
70683;SDS011;58263;48.146;11.440;2022-11-21T06:32:23;2.20;;;0.90;;
70683;SDS011;58263;48.146;11.440;2022-11-21T06:34:49;1.47;;;0.60;;
70683;SDS011;58263;48.146;11.440;2022-11-21T06:37:14;2.43;;;0.87;;
70683;SDS011;58263;48.146;11.440;2022-11-21T06:39:39;1.03;;;1.03;;
70683;SDS011;58263;48.146;11.440;2022-11-21T06:42:05;0.90;;;0.87;;
70683;SDS011;58263;48.146;11.440;2022-11-21T06:44:30;5.75;;;2.33;;
70683;SDS011;58263;48.146;11.440;2022-11-21T06:46:56;2.87;;;1.67;;
70683;SDS011;58263;48.146;11.440;2022-11-21T06:49:21;0.80;;;0.80;;
70683;SDS011;58263;48.146;11.440;2022-11-21T06:51:46;0.43;;;0.40;;
70683;SDS011;58263;48.146;11.440;2022-11-21T06:54:12;0.57;;;0.50;;
70683;SDS011;58263;48.146;11.440;2022-11-21T06:56:37;1.20;;;0.65;;
70683;SDS011;58263;48.146;11.440;2022-11-21T06:59:02;0.40;;;0.40;;
70683;SDS011;58263;48.146;11.440;2022-11-21T07:01:28;0.75;;;0.70;;
70683;SDS011;58263;48.146;11.440;2022-11-21T07:03:53;4.77;;;2.37;;
70683;SDS011;58263;48.146;11.440;2022-11-21T07:06:19;1.33;;;1.23;;
70683;SDS011;58263;48.146;11.440;2022-11-21T07:08:44;0.77;;;0.77;;
70683;SDS011;58263;48.146;11.440;2022-11-21T07:11:10;2.13;;;0.80;;
70683;SDS011;58263;48.146;11.440;2022-11-21T07:13:37;0.70;;;0.70;;
70683;SDS011;58263;48.146;11.440;2022-11-21T07:16:06;0.63;;;0.40;;
70683;SDS011;58263;48.146;11.440;2022-11-21T07:18:33;0.73;;;0.70;;
70683;SDS011;58263;48.146;11.440;2022-11-21T07:21:00;0.50;;;0.50;;
70683;SDS011;58263;48.146;11.440;2022-11-21T07:23:27;0.40;;;0.40;;
70683;SDS011;58263;48.146;11.440;2022-11-21T07:25:53;0.68;;;0.45;;
70683;SDS011;58263;48.146;11.440;2022-11-21T07:28:19;1.97;;;0.80;;
70683;SDS011;58263;48.146;11.440;2022-11-21T07:30:44;0.75;;;0.52;;
70683;SDS011;58263;48.146;11.440;2022-11-21T07:33:10;1.13;;;0.63;;
70683;SDS011;58263;48.146;11.440;2022-11-21T07:35:35;2.20;;;0.60;;
70683;SDS011;58263;48.146;11.440;2022-11-21T07:38:00;0.75;;;0.50;;
70683;SDS011;58263;48.146;11.440;2022-11-21T07:40:27;0.50;;;0.50;;
70683;SDS011;58263;48.146;11.440;2022-11-21T07:42:53;0.50;;;0.50;;
70683;SDS011;58263;48.146;11.440;2022-11-21T07:45:18;0.30;;;0.30;;
70683;SDS011;58263;48.146;11.440;2022-11-21T07:47:43;1.42;;;0.50;;
70683;SDS011;58263;48.146;11.440;2022-11-21T07:50:09;0.52;;;0.50;;
70683;SDS011;58263;48.146;11.440;2022-11-21T07:52:36;10.40;;;4.63;;
70683;SDS011;58263;48.146;11.440;2022-11-21T07:55:02;4.93;;;2.85;;
70683;SDS011;58263;48.146;11.440;2022-11-21T07:57:29;0.60;;;0.50;;
70683;SDS011;58263;48.146;11.440;2022-11-21T07:59:56;0.50;;;0.50;;
70683;SDS011;58263;48.146;11.440;2022-11-21T08:02:22;1.25;;;0.80;;
70683;SDS011;58263;48.146;11.440;2022-11-21T08:04:49;0.32;;;0.30;;
70683;SDS011;58263;48.146;11.440;2022-11-21T08:07:16;0.65;;;0.50;;
70683;SDS011;58263;48.146;11.440;2022-11-21T08:09:42;0.45;;;0.45;;
70683;SDS011;58263;48.146;11.440;2022-11-21T08:12:08;1.05;;;0.73;;
70683;SDS011;58263;48.146;11.440;2022-11-21T08:14:34;0.82;;;0.77;;
70683;SDS011;58263;48.146;11.440;2022-11-21T08:17:00;0.38;;;0.38;;
70683;SDS011;58263;48.146;11.440;2022-11-21T08:19:25;1.23;;;0.68;;
70683;SDS011;58263;48.146;11.440;2022-11-21T08:21:51;0.60;;;0.53;;
70683;SDS011;58263;48.146;11.440;2022-11-21T08:24:16;0.97;;;0.70;;
70683;SDS011;58263;48.146;11.440;2022-11-21T08:26:44;0.75;;;0.55;;
70683;SDS011;58263;48.146;11.440;2022-11-21T08:29:10;0.95;;;0.50;;
70683;SDS011;58263;48.146;11.440;2022-11-21T08:31:37;0.43;;;0.43;;
70683;SDS011;58263;48.146;11.440;2022-11-21T08:34:03;0.63;;;0.55;;
70683;SDS011;58263;48.146;11.440;2022-11-21T08:36:28;1.37;;;0.37;;
70683;SDS011;58263;48.146;11.440;2022-11-21T08:38:53;2.70;;;0.60;;
70683;SDS011;58263;48.146;11.440;2022-11-21T08:41:19;1.25;;;0.70;;
70683;SDS011;58263;48.146;11.440;2022-11-21T08:44:03;0.82;;;0.50;;
70683;SDS011;58263;48.146;11.440;2022-11-21T08:46:29;0.88;;;0.57;;
70683;SDS011;58263;48.146;11.440;2022-11-21T08:48:57;0.75;;;0.65;;
70683;SDS011;58263;48.146;11.440;2022-11-21T08:51:23;1.67;;;0.80;;
70683;SDS011;58263;48.146;11.440;2022-11-21T08:53:48;0.60;;;0.57;;
70683;SDS011;58263;48.146;11.440;2022-11-21T08:56:14;2.65;;;1.17;;
70683;SDS011;58263;48.146;11.440;2022-11-21T08:58:39;1.03;;;0.77;;
70683;SDS011;58263;48.146;11.440;2022-11-21T09:01:05;1.37;;;0.57;;
70683;SDS011;58263;48.146;11.440;2022-11-21T09:03:30;0.50;;;0.50;;
70683;SDS011;58263;48.146;11.440;2022-11-21T09:05:56;1.35;;;0.70;;
70683;SDS011;58263;48.146;11.440;2022-11-21T09:08:22;1.77;;;0.65;;
70683;SDS011;58263;48.146;11.440;2022-11-21T09:10:48;1.10;;;0.95;;
70683;SDS011;58263;48.146;11.440;2022-11-21T09:13:14;2.20;;;0.63;;
70683;SDS011;58263;48.146;11.440;2022-11-21T09:15:39;1.13;;;0.73;;
70683;SDS011;58263;48.146;11.440;2022-11-21T09:18:23;2.78;;;0.77;;
70683;SDS011;58263;48.146;11.440;2022-11-21T09:20:48;2.03;;;0.70;;
70683;SDS011;58263;48.146;11.440;2022-11-21T09:23:14;0.90;;;0.50;;
70683;SDS011;58263;48.146;11.440;2022-11-21T09:25:40;1.50;;;0.63;;
70683;SDS011;58263;48.146;11.440;2022-11-21T09:28:06;0.70;;;0.57;;
70683;SDS011;58263;48.146;11.440;2022-11-21T09:30:33;1.95;;;1.02;;
70683;SDS011;58263;48.146;11.440;2022-11-21T09:33:00;3.63;;;1.50;;
70683;SDS011;58263;48.146;11.440;2022-11-21T09:35:26;3.60;;;1.67;;
70683;SDS011;58263;48.146;11.440;2022-11-21T09:37:51;2.35;;;1.25;;
70683;SDS011;58263;48.146;11.440;2022-11-21T09:40:17;1.10;;;0.70;;
70683;SDS011;58263;48.146;11.440;2022-11-21T09:43:00;0.70;;;0.70;;
70683;SDS011;58263;48.146;11.440;2022-11-21T09:45:36;3.08;;;0.93;;
70683;SDS011;58263;48.146;11.440;2022-11-21T09:48:10;0.80;;;0.77;;
70683;SDS011;58263;48.146;11.440;2022-11-21T09:50:41;3.22;;;0.80;;
70683;SDS011;58263;48.146;11.440;2022-11-21T09:53:18;2.20;;;1.00;;
70683;SDS011;58263;48.146;11.440;2022-11-21T09:56:20;1.77;;;0.68;;
70683;SDS011;58263;48.146;11.440;2022-11-21T09:58:48;2.72;;;1.02;;
70683;SDS011;58263;48.146;11.440;2022-11-21T10:01:21;2.38;;;0.80;;
70683;SDS011;58263;48.146;11.440;2022-11-21T10:03:47;1.17;;;0.80;;
70683;SDS011;58263;48.146;11.440;2022-11-21T10:06:28;2.13;;;0.70;;
70683;SDS011;58263;48.146;11.440;2022-11-21T10:14:47;2.58;;;1.00;;
70683;SDS011;58263;48.146;11.440;2022-11-21T10:17:32;1.67;;;1.05;;
70683;SDS011;58263;48.146;11.440;2022-11-21T10:23:16;6.15;;;1.27;;
70683;SDS011;58263;48.146;11.440;2022-11-21T10:26:15;2.00;;;0.80;;
70683;SDS011;58263;48.146;11.440;2022-11-21T10:31:15;0.70;;;0.70;;
70683;SDS011;58263;48.146;11.440;2022-11-21T10:33:43;1.35;;;0.88;;
70683;SDS011;58263;48.146;11.440;2022-11-21T10:38:44;6.53;;;2.60;;
70683;SDS011;58263;48.146;11.440;2022-11-21T10:47:20;2.60;;;1.15;;
70683;SDS011;58263;48.146;11.440;2022-11-21T10:52:34;3.88;;;1.90;;
70683;SDS011;58263;48.146;11.440;2022-11-21T10:55:16;3.65;;;1.02;;
70683;SDS011;58263;48.146;11.440;2022-11-21T10:57:46;1.50;;;0.77;;
70683;SDS011;58263;48.146;11.440;2022-11-21T11:02:39;1.67;;;0.38;;
70683;SDS011;58263;48.146;11.440;2022-11-21T11:10:32;1.50;;;0.73;;
70683;SDS011;58263;48.146;11.440;2022-11-21T11:12:59;3.22;;;1.17;;
70683;SDS011;58263;48.146;11.440;2022-11-21T11:18:40;4.03;;;1.05;;
70683;SDS011;58263;48.146;11.440;2022-11-21T11:21:21;1.15;;;1.05;;
70683;SDS011;58263;48.146;11.440;2022-11-21T11:23:49;1.33;;;0.98;;
70683;SDS011;58263;48.146;11.440;2022-11-21T11:26:20;0.52;;;0.52;;
70683;SDS011;58263;48.146;11.440;2022-11-21T11:28:48;1.38;;;0.73;;
70683;SDS011;58263;48.146;11.440;2022-11-21T11:31:14;1.50;;;0.80;;
70683;SDS011;58263;48.146;11.440;2022-11-21T11:33:40;1.05;;;0.60;;
70683;SDS011;58263;48.146;11.440;2022-11-21T11:39:08;1.75;;;0.75;;
70683;SDS011;58263;48.146;11.440;2022-11-21T11:48:13;9.10;;;1.10;;
70683;SDS011;58263;48.146;11.440;2022-11-21T11:50:42;1.95;;;0.50;;
70683;SDS011;58263;48.146;11.440;2022-11-21T11:58:45;2.95;;;0.90;;
70683;SDS011;58263;48.146;11.440;2022-11-21T12:01:28;1.30;;;0.95;;
70683;SDS011;58263;48.146;11.440;2022-11-21T12:06:43;3.45;;;0.90;;
70683;SDS011;58263;48.146;11.440;2022-11-21T12:09:15;4.88;;;1.25;;
70683;SDS011;58263;48.146;11.440;2022-11-21T12:11:54;1.85;;;0.98;;
70683;SDS011;58263;48.146;11.440;2022-11-21T12:17:34;3.85;;;1.08;;
70683;SDS011;58263;48.146;11.440;2022-11-21T12:20:11;0.63;;;0.63;;
70683;SDS011;58263;48.146;11.440;2022-11-21T12:22:40;3.35;;;1.58;;
70683;SDS011;58263;48.146;11.440;2022-11-21T12:25:11;1.75;;;0.90;;
70683;SDS011;58263;48.146;11.440;2022-11-21T12:27:39;4.75;;;1.30;;
70683;SDS011;58263;48.146;11.440;2022-11-21T12:30:24;2.85;;;0.93;;
70683;SDS011;58263;48.146;11.440;2022-11-21T12:39:11;2.42;;;1.33;;
70683;SDS011;58263;48.146;11.440;2022-11-21T12:45:02;4.53;;;2.38;;
70683;SDS011;58263;48.146;11.440;2022-11-21T12:53:55;1.15;;;0.90;;
70683;SDS011;58263;48.146;11.440;2022-11-21T12:59:40;4.85;;;2.22;;
70683;SDS011;58263;48.146;11.440;2022-11-21T13:04:52;3.45;;;1.30;;
70683;SDS011;58263;48.146;11.440;2022-11-21T13:07:20;3.88;;;1.90;;
70683;SDS011;58263;48.146;11.440;2022-11-21T13:09:48;1.15;;;0.98;;
70683;SDS011;58263;48.146;11.440;2022-11-21T13:12:23;2.78;;;1.00;;
70683;SDS011;58263;48.146;11.440;2022-11-21T13:18:39;3.45;;;0.95;;
70683;SDS011;58263;48.146;11.440;2022-11-21T13:20:46;1.67;;;0.65;;
70683;SDS011;58263;48.146;11.440;2022-11-21T13:26:06;6.20;;;2.08;;
70683;SDS011;58263;48.146;11.440;2022-11-21T13:28:49;3.90;;;1.23;;
70683;SDS011;58263;48.146;11.440;2022-11-21T13:31:30;2.88;;;1.23;;
70683;SDS011;58263;48.146;11.440;2022-11-21T13:33:56;2.65;;;1.08;;
70683;SDS011;58263;48.146;11.440;2022-11-21T13:44:41;3.63;;;1.52;;
70683;SDS011;58263;48.146;11.440;2022-11-21T13:52:40;4.00;;;2.20;;
70683;SDS011;58263;48.146;11.440;2022-11-21T13:59:05;1.55;;;0.98;;
70683;SDS011;58263;48.146;11.440;2022-11-21T14:04:31;2.38;;;1.60;;
70683;SDS011;58263;48.146;11.440;2022-11-21T14:07:15;2.38;;;1.38;;
70683;SDS011;58263;48.146;11.440;2022-11-21T14:09:49;3.63;;;1.77;;
70683;SDS011;58263;48.146;11.440;2022-11-21T14:12:23;4.55;;;1.42;;
70683;SDS011;58263;48.146;11.440;2022-11-21T14:20:15;8.70;;;4.10;;
70683;SDS011;58263;48.146;11.440;2022-11-21T14:25:19;3.03;;;1.05;;
70683;SDS011;58263;48.146;11.440;2022-11-21T14:27:52;1.85;;;0.90;;
70683;SDS011;58263;48.146;11.440;2022-11-21T14:30:24;1.77;;;1.10;;
70683;SDS011;58263;48.146;11.440;2022-11-21T14:32:52;0.90;;;0.57;;
70683;SDS011;58263;48.146;11.440;2022-11-21T14:35:20;5.23;;;1.27;;
70683;SDS011;58263;48.146;11.440;2022-11-21T14:37:47;1.55;;;0.68;;
70683;SDS011;58263;48.146;11.440;2022-11-21T14:40:19;4.03;;;1.00;;
70683;SDS011;58263;48.146;11.440;2022-11-21T14:42:46;3.13;;;1.08;;
70683;SDS011;58263;48.146;11.440;2022-11-21T14:45:16;7.40;;;1.23;;
70683;SDS011;58263;48.146;11.440;2022-11-21T14:47:50;6.72;;;1.58;;
70683;SDS011;58263;48.146;11.440;2022-11-21T14:50:23;5.00;;;1.20;;
70683;SDS011;58263;48.146;11.440;2022-11-21T14:52:53;4.75;;;1.00;;
70683;SDS011;58263;48.146;11.440;2022-11-21T14:55:26;2.97;;;1.00;;
70683;SDS011;58263;48.146;11.440;2022-11-21T14:57:53;2.30;;;0.88;;
70683;SDS011;58263;48.146;11.440;2022-11-21T15:00:21;3.13;;;1.20;;
70683;SDS011;58263;48.146;11.440;2022-11-21T15:02:50;3.22;;;1.40;;
70683;SDS011;58263;48.146;11.440;2022-11-21T15:05:18;4.72;;;1.17;;
70683;SDS011;58263;48.146;11.440;2022-11-21T15:07:45;2.80;;;1.10;;
70683;SDS011;58263;48.146;11.440;2022-11-21T15:10:12;3.80;;;1.27;;
70683;SDS011;58263;48.146;11.440;2022-11-21T15:17:54;3.15;;;1.55;;
70683;SDS011;58263;48.146;11.440;2022-11-21T15:20:21;4.68;;;1.88;;
70683;SDS011;58263;48.146;11.440;2022-11-21T15:22:47;5.45;;;1.42;;
70683;SDS011;58263;48.146;11.440;2022-11-21T15:27:45;2.70;;;1.50;;
70683;SDS011;58263;48.146;11.440;2022-11-21T15:30:33;9.23;;;2.03;;
70683;SDS011;58263;48.146;11.440;2022-11-21T15:35:38;3.22;;;1.40;;
70683;SDS011;58263;48.146;11.440;2022-11-21T15:38:17;3.50;;;1.38;;
70683;SDS011;58263;48.146;11.440;2022-11-21T15:40:54;3.22;;;1.70;;
70683;SDS011;58263;48.146;11.440;2022-11-21T15:43:38;4.43;;;1.80;;
70683;SDS011;58263;48.146;11.440;2022-11-21T15:46:22;11.43;;;2.08;;
70683;SDS011;58263;48.146;11.440;2022-11-21T15:51:23;4.35;;;1.88;;
70683;SDS011;58263;48.146;11.440;2022-11-21T15:53:50;4.30;;;1.98;;
70683;SDS011;58263;48.146;11.440;2022-11-21T15:56:16;4.93;;;2.10;;
70683;SDS011;58263;48.146;11.440;2022-11-21T15:58:43;4.43;;;2.35;;
70683;SDS011;58263;48.146;11.440;2022-11-21T16:01:13;6.68;;;2.60;;
70683;SDS011;58263;48.146;11.440;2022-11-21T16:03:40;4.13;;;2.20;;
70683;SDS011;58263;48.146;11.440;2022-11-21T16:06:06;5.28;;;2.63;;
70683;SDS011;58263;48.146;11.440;2022-11-21T16:08:31;5.40;;;2.80;;
70683;SDS011;58263;48.146;11.440;2022-11-21T16:10:56;4.83;;;2.63;;
70683;SDS011;58263;48.146;11.440;2022-11-21T16:13:22;5.83;;;2.70;;
70683;SDS011;58263;48.146;11.440;2022-11-21T16:15:47;4.80;;;2.57;;
70683;SDS011;58263;48.146;11.440;2022-11-21T16:18:12;5.90;;;2.53;;
70683;SDS011;58263;48.146;11.440;2022-11-21T16:20:37;5.03;;;3.20;;
70683;SDS011;58263;48.146;11.440;2022-11-21T16:23:03;4.30;;;2.23;;
70683;SDS011;58263;48.146;11.440;2022-11-21T16:25:28;4.93;;;2.40;;
70683;SDS011;58263;48.146;11.440;2022-11-21T16:27:54;5.23;;;2.60;;
70683;SDS011;58263;48.146;11.440;2022-11-21T16:30:22;5.40;;;2.42;;
70683;SDS011;58263;48.146;11.440;2022-11-21T16:32:47;10.00;;;4.20;;
70683;SDS011;58263;48.146;11.440;2022-11-21T16:35:15;6.18;;;3.30;;
70683;SDS011;58263;48.146;11.440;2022-11-21T16:37:40;6.45;;;3.53;;
70683;SDS011;58263;48.146;11.440;2022-11-21T16:40:06;6.70;;;3.30;;
70683;SDS011;58263;48.146;11.440;2022-11-21T16:42:31;9.32;;;2.90;;
70683;SDS011;58263;48.146;11.440;2022-11-21T16:44:57;6.23;;;3.03;;
70683;SDS011;58263;48.146;11.440;2022-11-21T16:47:22;8.05;;;3.80;;
70683;SDS011;58263;48.146;11.440;2022-11-21T16:49:47;6.70;;;3.43;;
70683;SDS011;58263;48.146;11.440;2022-11-21T16:52:13;9.07;;;3.80;;
70683;SDS011;58263;48.146;11.440;2022-11-21T16:54:38;10.40;;;4.55;;
70683;SDS011;58263;48.146;11.440;2022-11-21T16:57:04;11.07;;;4.15;;